createdAt,value
2019-04-26T00:01:06.154Z,52.33
2019-04-26T00:03:16.820Z,50.25
2019-04-26T00:05:34.351Z,55.10
2019-04-26T00:07:35.375Z,52.43
2019-04-26T00:09:43.698Z,52.80
2019-04-26T00:11:53.370Z,51.35
2019-04-26T00:14:11.381Z,57.33
2019-04-26T00:16:21.595Z,47.62
2019-04-26T00:18:29.663Z,53.20
2019-04-26T00:20:37.909Z,49.80
2019-04-26T00:22:45.767Z,50.78
2019-04-26T00:24:54.036Z,59.20
2019-04-26T00:27:02.008Z,65.50
2019-04-26T00:29:11.264Z,60.43
2019-04-26T00:31:19.395Z,58.00
2019-04-26T00:33:27.429Z,62.55
2019-04-26T00:35:46.810Z,52.23
2019-04-26T00:37:46.712Z,58.13
2019-04-26T00:39:55.047Z,59.77
2019-04-26T00:42:03.839Z,65.78
2019-04-26T00:44:13.854Z,59.50
2019-04-26T00:46:25.003Z,58.58
2019-04-26T00:48:33.540Z,69.42
2019-04-26T00:50:41.773Z,53.90
2019-04-26T00:52:50.888Z,49.03
2019-04-26T00:55:00.111Z,54.30
2019-04-26T00:57:09.033Z,58.17
2019-04-26T00:59:18.390Z,49.35
2019-04-26T01:01:28.361Z,55.90
2019-04-26T01:03:36.635Z,63.25
2019-04-26T01:05:46.476Z,63.73
2019-04-26T01:07:56.180Z,55.60
2019-04-26T01:10:05.411Z,54.33
2019-04-26T01:12:13.613Z,64.20
2019-04-26T01:14:22.127Z,53.65
2019-04-26T01:16:30.380Z,47.67
2019-04-26T01:18:38.739Z,46.28
2019-04-26T01:20:50.353Z,46.23
2019-04-26T01:23:02.597Z,54.00
2019-04-26T01:25:38.290Z,52.88
2019-04-26T01:27:46.424Z,54.42
2019-04-26T01:29:59.135Z,54.03
2019-04-26T01:32:12.698Z,62.65
2019-04-26T01:34:22.055Z,55.70
2019-04-26T01:36:31.586Z,61.65
2019-04-26T01:38:39.534Z,55.10
2019-04-26T01:40:49.371Z,53.60
2019-04-26T01:42:59.067Z,57.60
2019-04-26T01:45:11.517Z,47.85
2019-04-26T01:47:20.773Z,49.63
2019-04-26T01:49:29.145Z,48.55
2019-04-26T01:51:43.407Z,49.85
2019-04-26T01:53:53.024Z,47.58
2019-04-26T01:56:00.958Z,47.78
2019-04-26T01:58:09.065Z,45.00
2019-04-26T02:00:25.546Z,53.48
2019-04-26T02:02:39.040Z,58.70
2019-04-26T02:04:50.123Z,46.02
2019-04-26T02:06:58.096Z,45.10
2019-04-26T02:09:09.258Z,43.48
2019-04-26T02:11:17.430Z,48.45
2019-04-26T02:13:26.827Z,47.55
2019-04-26T02:15:35.492Z,51.25
2019-04-26T02:17:45.831Z,48.38
2019-04-26T02:19:53.978Z,46.28
2019-04-26T02:22:03.652Z,48.40
2019-04-26T02:24:23.901Z,48.13
2019-04-26T02:26:36.729Z,51.20
2019-04-26T02:28:44.632Z,52.55
2019-04-26T02:30:53.778Z,55.15
2019-04-26T02:33:02.102Z,54.18
2019-04-26T02:35:11.782Z,52.80
2019-04-26T02:37:20.076Z,53.80
2019-04-26T02:39:37.526Z,54.98
2019-04-26T02:41:47.508Z,50.43
2019-04-26T02:43:59.950Z,64.97
2019-04-26T02:46:13.452Z,60.20
2019-04-26T02:48:30.839Z,55.23
2019-04-26T02:50:44.151Z,57.73
2019-04-26T02:53:11.809Z,58.20
2019-04-26T02:55:57.692Z,49.13
2019-04-26T02:58:05.968Z,53.20
2019-04-26T03:00:18.952Z,61.75
2019-04-26T03:02:30.231Z,56.42
2019-04-26T03:04:40.019Z,54.23
2019-04-26T03:07:02.519Z,54.88
2019-04-26T03:09:01.329Z,59.75
2019-04-26T03:11:17.486Z,51.77
2019-04-26T03:13:34.872Z,49.40
2019-04-26T03:16:07.675Z,50.35
2019-04-26T03:18:31.678Z,54.80
2019-04-26T03:20:44.486Z,56.10
2019-04-26T03:23:18.089Z,51.70
2019-04-26T03:25:38.830Z,52.53
2019-04-26T03:28:03.369Z,51.18
2019-04-26T03:30:25.087Z,46.28
2019-04-26T03:32:54.111Z,44.98
2019-04-26T03:35:36.809Z,45.35
2019-04-26T03:37:54.154Z,39.05
2019-04-26T03:40:42.421Z,41.73
2019-04-26T03:43:12.995Z,32.58
2019-04-26T03:45:52.590Z,39.78
2019-04-26T03:48:21.319Z,34.03
2019-04-26T03:50:42.841Z,40.10
2019-04-26T03:53:16.728Z,40.67
2019-04-26T03:55:34.375Z,36.88
2019-04-26T03:58:15.321Z,47.05
2019-04-26T04:00:30.250Z,48.78
2019-04-26T04:03:03.141Z,40.95
2019-04-26T04:05:40.125Z,48.42
2019-04-26T04:07:51.712Z,51.65
2019-04-26T04:10:13.133Z,46.20
2019-04-26T04:12:31.331Z,50.67
2019-04-26T04:14:55.587Z,48.85
2019-04-26T04:17:15.354Z,50.35
2019-04-26T04:19:55.224Z,46.85
2019-04-26T04:22:15.334Z,43.48
2019-04-26T04:24:30.719Z,42.58
2019-04-26T04:27:00.797Z,41.40
2019-04-26T04:29:42.535Z,49.35
2019-04-26T04:32:00.741Z,42.17
2019-04-26T04:34:33.616Z,48.63
2019-04-26T04:36:48.271Z,39.98
2019-04-26T04:39:23.140Z,40.17
2019-04-26T04:41:59.106Z,49.33
2019-04-26T04:44:34.051Z,46.23
2019-04-26T04:46:54.114Z,51.25
2019-04-26T04:49:25.014Z,44.53
2019-04-26T04:52:29.501Z,45.12
2019-04-26T04:55:09.498Z,48.35
2019-04-26T04:57:56.915Z,45.75
2019-04-26T05:00:19.979Z,43.78
2019-04-26T05:02:46.673Z,34.90
2019-04-26T05:05:34.134Z,37.58
2019-04-26T05:08:23.249Z,33.28
2019-04-26T05:11:10.166Z,33.50
2019-04-26T05:13:42.324Z,42.05
2019-04-26T05:16:23.712Z,31.07
2019-04-26T05:18:58.878Z,41.50
2019-04-26T05:21:35.778Z,39.55
2019-04-26T05:24:08.647Z,45.60
2019-04-26T05:26:29.493Z,37.83
2019-04-26T05:29:07.664Z,34.78
2019-04-26T05:31:48.528Z,40.25
2019-04-26T05:34:23.969Z,32.13
2019-04-26T05:36:36.683Z,39.08
2019-04-26T05:39:09.263Z,34.23
2019-04-26T05:41:44.101Z,33.35
2019-04-26T05:44:35.453Z,39.85
2019-04-26T05:47:24.305Z,34.48
2019-04-26T05:50:13.297Z,33.42
2019-04-26T05:52:55.867Z,34.48
2019-04-26T05:55:54.108Z,30.77
2019-04-26T05:58:29.177Z,32.83
2019-04-26T06:01:19.232Z,34.67
2019-04-26T06:03:52.873Z,38.30
2019-04-26T06:06:33.892Z,25.45
2019-04-26T06:08:59.624Z,38.67
2019-04-26T06:11:13.865Z,30.40
2019-04-26T06:13:53.717Z,32.25
2019-04-26T06:16:48.020Z,38.73
2019-04-26T06:19:20.733Z,29.20
2019-04-26T06:22:11.207Z,34.60
2019-04-26T06:24:39.472Z,35.08
2019-04-26T06:27:14.251Z,33.42
2019-04-26T06:29:58.681Z,36.28
2019-04-26T06:32:37.949Z,27.67
2019-04-26T06:35:03.580Z,33.55
2019-04-26T06:37:27.311Z,33.83
2019-04-26T06:39:39.875Z,35.73
2019-04-26T06:42:09.159Z,29.65
2019-04-26T06:44:29.561Z,33.38
2019-04-26T06:46:49.449Z,37.98
2019-04-26T06:49:24.045Z,31.73
2019-04-26T06:51:45.369Z,38.35
2019-04-26T06:54:19.137Z,29.10
2019-04-26T06:56:48.104Z,33.95
2019-04-26T06:59:40.210Z,26.40
2019-04-26T07:01:59.045Z,28.20
2019-04-26T07:04:50.600Z,28.00
2019-04-26T07:07:17.965Z,32.58
2019-04-26T07:09:35.908Z,29.05
2019-04-26T07:12:29.903Z,27.13
2019-04-26T07:15:10.129Z,26.85
2019-04-26T07:17:51.439Z,22.70
2019-04-26T07:20:29.577Z,21.27
2019-04-26T07:23:14.193Z,24.52
2019-04-26T07:26:01.703Z,18.95
2019-04-26T07:28:47.791Z,20.85
2019-04-26T07:31:08.584Z,22.95
2019-04-26T07:33:46.165Z,33.60
2019-04-26T07:36:10.437Z,27.67
2019-04-26T07:39:20.315Z,29.80
2019-04-26T07:42:09.490Z,23.05
2019-04-26T07:44:50.982Z,19.35
2019-04-26T07:47:41.665Z,19.82
2019-04-26T07:50:33.221Z,24.10
2019-04-26T07:53:13.755Z,23.55
2019-04-26T07:55:38.291Z,23.67
2019-04-26T07:58:24.291Z,59.65
2019-04-26T08:00:44.937Z,25.72
2019-04-26T08:03:04.139Z,26.17
2019-04-26T08:05:25.572Z,26.50
2019-04-26T08:07:43.695Z,30.95
2019-04-26T08:10:06.008Z,20.57
2019-04-26T08:12:19.733Z,17.50
2019-04-26T08:14:54.407Z,23.00
2019-04-26T08:17:30.242Z,18.82
2019-04-26T08:19:59.562Z,23.55
2019-04-26T08:22:17.906Z,30.15
2019-04-26T08:24:27.864Z,25.30
2019-04-26T08:26:37.489Z,23.00
2019-04-26T08:28:48.261Z,18.65
2019-04-26T08:30:58.126Z,19.85
2019-04-26T08:33:12.835Z,24.23
2019-04-26T08:35:21.976Z,22.32
2019-04-26T08:37:45.570Z,21.48
2019-04-26T08:39:56.603Z,18.23
2019-04-26T08:42:09.034Z,27.65
2019-04-26T08:44:33.862Z,26.80
2019-04-26T08:46:51.064Z,31.10
2019-04-26T08:49:08.283Z,19.95
2019-04-26T08:51:22.950Z,19.62
2019-04-26T08:53:36.680Z,21.35
2019-04-26T08:55:46.789Z,25.02
2019-04-26T08:57:59.278Z,23.62
2019-04-26T09:00:24.080Z,26.60
2019-04-26T09:02:39.160Z,22.52
2019-04-26T09:04:57.402Z,21.80
2019-04-26T09:07:09.835Z,22.35
2019-04-26T09:09:23.027Z,22.50
2019-04-26T09:11:34.017Z,22.90
2019-04-26T09:13:45.803Z,25.10
2019-04-26T09:16:10.006Z,21.95
2019-04-26T09:18:18.115Z,25.65
2019-04-26T09:20:29.407Z,19.48
2019-04-26T09:22:35.583Z,16.23
2019-04-26T09:25:03.292Z,23.60
2019-04-26T09:27:20.801Z,21.87
2019-04-26T09:29:34.861Z,29.85
2019-04-26T09:32:05.399Z,23.45
2019-04-26T09:34:18.431Z,20.52
2019-04-26T09:36:26.311Z,23.30
2019-04-26T09:38:34.297Z,26.15
2019-04-26T09:40:42.560Z,19.30
2019-04-26T09:43:10.419Z,23.87
2019-04-26T09:45:22.632Z,17.67
2019-04-26T09:47:38.391Z,22.90
2019-04-26T09:50:01.485Z,27.50
2019-04-26T09:52:11.117Z,20.92
2019-04-26T09:54:19.227Z,31.25
2019-04-26T09:56:28.083Z,19.00
2019-04-26T09:58:37.173Z,140.82
2019-04-26T10:00:48.644Z,27.02
2019-04-26T10:02:54.779Z,31.23
2019-04-26T10:05:02.685Z,19.92
2019-04-26T10:07:10.845Z,21.90
2019-04-26T10:09:21.244Z,16.90
2019-04-26T10:11:30.919Z,21.00
2019-04-26T10:13:56.670Z,25.12
2019-04-26T10:16:13.711Z,22.58
2019-04-26T10:18:24.282Z,18.82
2019-04-26T10:20:33.779Z,19.30
2019-04-26T10:22:41.635Z,16.97
2019-04-26T10:24:49.523Z,20.62
2019-04-26T10:26:59.204Z,19.55
2019-04-26T10:29:07.442Z,22.93
2019-04-26T10:31:17.216Z,18.50
2019-04-26T10:33:24.950Z,19.60
2019-04-26T10:35:33.362Z,17.32
2019-04-26T10:37:43.853Z,14.68
2019-04-26T10:39:51.066Z,17.12
2019-04-26T10:41:59.262Z,17.23
2019-04-26T10:44:07.427Z,24.18
2019-04-26T10:46:16.626Z,18.45
2019-04-26T10:48:24.541Z,14.20
2019-04-26T10:50:34.313Z,14.90
2019-04-26T10:52:54.387Z,22.17
2019-04-26T10:55:18.940Z,16.82
2019-04-26T10:57:41.856Z,16.23
2019-04-26T10:59:58.539Z,14.25
2019-04-26T11:02:09.990Z,18.55
2019-04-26T11:04:17.896Z,17.70
2019-04-26T11:06:27.842Z,13.83
2019-04-26T11:08:36.529Z,21.05
2019-04-26T11:10:48.909Z,14.30
2019-04-26T11:12:54.298Z,22.05
2019-04-26T11:15:02.116Z,15.95
2019-04-26T11:17:11.589Z,14.87
2019-04-26T11:19:20.355Z,14.23
2019-04-26T11:21:29.325Z,15.32
2019-04-26T11:23:41.089Z,14.90
2019-04-26T11:25:47.380Z,13.98
2019-04-26T11:27:55.382Z,14.40
2019-04-26T11:30:11.518Z,16.93
2019-04-26T11:32:13.174Z,15.35
2019-04-26T11:34:23.571Z,11.60
2019-04-26T11:36:31.155Z,13.93
2019-04-26T11:38:40.031Z,15.83
2019-04-26T11:40:49.838Z,14.68
2019-04-26T11:42:57.832Z,11.50
2019-04-26T11:45:14.203Z,12.13
2019-04-26T11:47:20.143Z,18.15
2019-04-26T11:49:28.266Z,15.50
2019-04-26T11:51:36.640Z,21.65
2019-04-26T11:53:46.156Z,18.85
2019-04-26T11:55:54.184Z,16.15
2019-04-26T11:58:02.075Z,18.73
2019-04-26T12:00:12.122Z,12.93
2019-04-26T12:02:20.190Z,11.05
2019-04-26T12:04:29.625Z,16.73
2019-04-26T12:06:39.086Z,14.05
2019-04-26T12:08:49.722Z,12.85
2019-04-26T12:10:58.688Z,17.02
2019-04-26T12:13:06.575Z,18.75
2019-04-26T12:15:15.481Z,8.80
2019-04-26T12:17:23.350Z,14.43
2019-04-26T12:19:31.205Z,10.80
2019-04-26T12:21:39.031Z,14.58
2019-04-26T12:23:47.300Z,13.50
2019-04-26T12:25:55.278Z,8.98
2019-04-26T12:28:05.981Z,14.00
2019-04-26T12:30:15.438Z,17.87
2019-04-26T12:32:23.310Z,11.38
2019-04-26T12:34:31.214Z,11.50
2019-04-26T12:36:39.403Z,13.10
2019-04-26T12:38:47.295Z,11.70
2019-04-26T12:40:55.297Z,11.65
2019-04-26T12:43:04.444Z,12.93
2019-04-26T12:45:32.821Z,16.55
2019-04-26T12:47:58.918Z,11.75
2019-04-26T12:50:07.691Z,18.37
2019-04-26T12:52:17.597Z,10.28
2019-04-26T12:54:25.165Z,14.70
2019-04-26T12:56:33.069Z,14.45
2019-04-26T12:58:40.863Z,15.38
2019-04-26T13:00:54.113Z,14.00
2019-04-26T13:02:59.832Z,11.25
2019-04-26T13:05:08.429Z,14.95
2019-04-26T13:07:24.014Z,11.85
2019-04-26T13:09:32.598Z,10.18
2019-04-26T13:11:48.974Z,10.45
2019-04-26T13:14:00.618Z,16.15
2019-04-26T13:16:10.208Z,12.58
2019-04-26T13:18:18.406Z,13.88
2019-04-26T13:20:28.847Z,12.43
2019-04-26T13:22:45.872Z,9.83
2019-04-26T13:24:45.657Z,14.73
2019-04-26T13:26:53.622Z,10.88
2019-04-26T13:29:01.672Z,13.35
2019-04-26T13:31:09.566Z,11.53
2019-04-26T13:33:17.526Z,9.43
2019-04-26T13:35:25.611Z,13.60
2019-04-26T13:37:35.690Z,10.65
2019-04-26T13:39:43.650Z,17.00
2019-04-26T13:42:02.083Z,10.35
2019-04-26T13:44:05.656Z,16.27
2019-04-26T13:46:29.201Z,14.87
2019-04-26T13:48:54.091Z,15.45
2019-04-26T13:51:14.377Z,10.72
2019-04-26T13:53:25.777Z,13.35
2019-04-26T13:55:33.820Z,9.68
2019-04-26T13:57:44.585Z,13.43
2019-04-26T13:59:52.251Z,9.33
2019-04-26T14:02:11.265Z,11.75
2019-04-26T14:04:12.130Z,11.08
2019-04-26T14:06:20.526Z,16.82
2019-04-26T14:08:28.798Z,11.57
2019-04-26T14:10:36.991Z,14.93
2019-04-26T14:12:49.996Z,12.03
2019-04-26T14:14:58.609Z,11.30
2019-04-26T14:17:06.878Z,8.48
2019-04-26T14:19:16.651Z,13.28
2019-04-26T14:21:24.564Z,9.48
2019-04-26T14:23:37.906Z,9.45
2019-04-26T14:25:49.186Z,10.63
2019-04-26T14:27:56.961Z,13.68
2019-04-26T14:30:08.479Z,11.53
2019-04-26T14:32:17.541Z,12.95
2019-04-26T14:34:25.541Z,12.15
2019-04-26T14:36:33.414Z,13.22
2019-04-26T14:38:41.373Z,14.58
2019-04-26T14:41:02.788Z,14.07
2019-04-26T14:43:06.599Z,13.70
2019-04-26T14:45:22.436Z,13.78
2019-04-26T14:47:18.867Z,13.20
2019-04-26T14:49:38.439Z,15.63
2019-04-26T14:51:36.421Z,8.48
2019-04-26T14:53:44.394Z,11.18
2019-04-26T14:55:54.598Z,9.63
2019-04-26T14:58:02.973Z,14.40
2019-04-26T15:00:16.637Z,8.95
2019-04-26T15:02:47.237Z,11.65
2019-04-26T15:04:58.095Z,12.80
2019-04-26T15:07:06.381Z,10.72
2019-04-26T15:09:19.549Z,14.63
2019-04-26T15:11:52.763Z,14.18
2019-04-26T15:16:26.673Z,14.20
2019-04-26T15:18:37.102Z,16.37
2019-04-26T15:20:57.082Z,9.28
2019-04-26T15:23:13.250Z,14.78
2019-04-26T15:25:36.910Z,13.88
2019-04-26T15:27:46.806Z,11.95
2019-04-26T15:30:07.366Z,8.45
2019-04-26T15:32:15.462Z,14.53
2019-04-26T15:34:26.409Z,11.97
2019-04-26T15:36:49.514Z,17.15
2019-04-26T15:41:30.968Z,14.70
2019-04-26T15:43:42.870Z,16.23
2019-04-26T15:46:12.399Z,14.55
2019-04-26T15:48:36.416Z,15.58
2019-04-26T15:50:52.022Z,14.10
2019-04-26T15:53:02.506Z,17.35
2019-04-26T15:55:10.649Z,13.95
2019-04-26T16:00:14.210Z,12.43
2019-04-26T16:02:26.082Z,11.08
2019-04-26T16:04:32.560Z,13.85
2019-04-26T16:06:41.905Z,15.63
2019-04-26T16:08:50.175Z,13.58
2019-04-26T16:10:58.072Z,15.20
2019-04-26T16:13:18.528Z,11.95
2019-04-26T16:15:16.958Z,11.85
2019-04-26T16:17:25.923Z,23.15
2019-04-26T16:19:34.035Z,17.27
2019-04-26T16:21:42.545Z,18.27
2019-04-26T16:23:52.016Z,14.15
2019-04-26T16:26:00.187Z,14.47
2019-04-26T16:28:27.144Z,15.13
2019-04-26T16:30:37.683Z,14.15
2019-04-26T16:33:03.319Z,12.45
2019-04-26T16:35:32.421Z,20.85
2019-04-26T16:40:26.327Z,17.70
2019-04-26T16:42:35.276Z,24.85
2019-04-26T16:44:45.041Z,18.75
2019-04-26T16:47:01.142Z,22.98
2019-04-26T16:49:05.817Z,20.82
2019-04-26T16:51:14.483Z,21.93
2019-04-26T16:55:35.529Z,22.82
2019-04-26T16:57:53.681Z,23.20
2019-04-26T16:59:57.523Z,23.45
2019-04-26T17:00:32.162Z,21.45
2019-04-26T17:02:02.426Z,25.35
2019-04-26T17:04:14.304Z,39.78
2019-04-26T17:06:23.331Z,33.38
2019-04-26T17:08:31.395Z,45.55
2019-04-26T17:10:39.339Z,47.23
2019-04-26T17:12:50.555Z,50.80
2019-04-26T17:14:56.743Z,40.60
2019-04-26T17:17:10.494Z,51.13
2019-04-26T17:19:19.733Z,45.10
2019-04-26T17:21:28.092Z,62.98
2019-04-26T17:23:41.580Z,74.15
2019-04-26T17:26:06.652Z,79.97
2019-04-26T17:28:17.952Z,53.60
2019-04-26T17:30:26.736Z,68.25
2019-04-26T17:32:35.145Z,58.05
2019-04-26T17:34:43.407Z,59.75
2019-04-26T17:36:52.261Z,60.15
2019-04-26T17:39:00.678Z,70.05
2019-04-26T17:41:12.662Z,69.35
2019-04-26T17:43:21.198Z,67.55
2019-04-26T17:45:30.650Z,59.58
2019-04-26T17:47:41.808Z,85.80
2019-04-26T17:49:50.194Z,88.20
2019-04-26T17:52:00.361Z,94.65
2019-04-26T17:54:26.680Z,87.95
2019-04-26T17:56:17.923Z,86.63
2019-04-26T17:58:31.076Z,71.20
2019-04-26T18:00:45.612Z,72.10
2019-04-26T18:02:48.464Z,80.57
2019-04-26T18:05:02.933Z,77.08
2019-04-26T18:07:33.864Z,55.20
2019-04-26T18:09:39.815Z,53.02
2019-04-26T18:11:28.883Z,45.58
2019-04-26T18:13:37.850Z,52.23
2019-04-26T18:15:48.475Z,45.23
2019-04-26T18:17:55.104Z,40.70
2019-04-26T18:20:23.499Z,30.60
2019-04-26T18:22:45.040Z,52.00
2019-04-26T18:24:52.880Z,40.10
2019-04-26T18:27:03.564Z,43.92
2019-04-26T18:29:13.149Z,37.03
2019-04-26T18:31:28.491Z,39.73
2019-04-26T18:33:32.814Z,38.85
2019-04-26T18:35:43.487Z,47.50
2019-04-26T18:37:50.409Z,45.17
2019-04-26T18:40:02.061Z,46.98
2019-04-26T18:42:10.400Z,43.75
2019-04-26T18:44:18.408Z,45.38
2019-04-26T18:46:35.841Z,42.20
2019-04-26T18:48:44.723Z,46.13
2019-04-26T18:50:52.707Z,64.30
2019-04-26T18:53:13.903Z,52.90
2019-04-26T18:55:29.287Z,49.90
2019-04-26T18:57:34.634Z,46.23
2019-04-26T18:59:44.820Z,49.80
2019-04-26T19:01:53.538Z,36.70
2019-04-26T19:04:09.866Z,36.55
2019-04-26T19:06:11.290Z,38.30
2019-04-26T19:08:20.870Z,45.95
2019-04-26T19:10:29.491Z,53.33
2019-04-26T19:12:39.543Z,43.95
2019-04-26T19:15:06.823Z,40.05
2019-04-26T19:17:12.919Z,50.80
2019-04-26T19:19:27.989Z,46.37
2019-04-26T19:21:46.983Z,49.42
2019-04-26T19:24:05.765Z,55.40
2019-04-26T19:26:09.399Z,43.10
2019-04-26T19:28:15.643Z,47.55
2019-04-26T19:30:23.778Z,43.55
2019-04-26T19:32:35.485Z,41.40
2019-04-26T19:34:42.148Z,43.63
2019-04-26T19:36:52.349Z,48.65
2019-04-26T19:39:00.112Z,47.53
2019-04-26T19:41:08.264Z,44.53
2019-04-26T19:43:28.247Z,55.98
2019-04-26T19:45:45.931Z,54.05
2019-04-26T19:48:02.323Z,52.85
2019-04-26T19:50:15.253Z,44.65
2019-04-26T19:52:33.665Z,55.03
2019-04-26T19:54:43.013Z,56.85
2019-04-26T19:56:56.603Z,51.42
2019-04-26T19:59:05.221Z,49.98
2019-04-26T20:01:16.485Z,60.65
2019-04-26T20:03:22.853Z,57.90
2019-04-26T20:05:32.023Z,55.30
2019-04-26T20:07:41.520Z,53.30
2019-04-26T20:09:52.302Z,54.33
2019-04-26T20:12:02.567Z,51.55
2019-04-26T20:14:12.095Z,51.65
2019-04-26T20:16:19.775Z,54.45
2019-04-26T20:18:27.582Z,53.73
2019-04-26T20:20:36.312Z,60.17
2019-04-26T20:22:44.455Z,59.15
2019-04-26T20:24:55.191Z,69.20
2019-04-26T20:27:03.526Z,61.60
2019-04-26T20:29:11.948Z,61.95
2019-04-26T20:31:31.005Z,60.35
2019-04-26T20:33:39.188Z,63.70
2019-04-26T20:35:47.472Z,78.02
2019-04-26T20:38:02.802Z,63.23
2019-04-26T20:40:18.462Z,95.17
2019-04-26T20:42:18.654Z,79.15
2019-04-26T20:44:28.673Z,68.72
2019-04-26T20:46:37.830Z,80.80
2019-04-26T20:48:46.253Z,80.15
2019-04-26T20:50:55.508Z,106.97
2019-04-26T20:53:04.523Z,105.70
2019-04-26T20:55:13.808Z,98.85
2019-04-26T20:57:26.530Z,101.55
2019-04-26T20:59:32.523Z,94.60
2019-04-26T21:01:43.590Z,100.65
2019-04-26T21:03:51.727Z,100.33
2019-04-26T21:06:01.432Z,106.10
2019-04-26T21:08:10.212Z,96.72
2019-04-26T21:10:22.139Z,102.47
2019-04-26T21:12:29.150Z,86.82
2019-04-26T21:14:37.739Z,101.67
2019-04-26T21:16:49.458Z,102.17
2019-04-26T21:18:56.900Z,97.78
2019-04-26T21:21:05.819Z,86.53
2019-04-26T21:23:15.367Z,84.15
2019-04-26T21:25:33.989Z,83.00
2019-04-26T21:27:46.630Z,75.28
2019-04-26T21:30:13.511Z,64.12
2019-04-26T21:32:24.526Z,70.17
2019-04-26T21:34:34.841Z,61.77
2019-04-26T21:36:59.737Z,72.82
2019-04-26T21:39:14.187Z,79.90
2019-04-26T21:41:23.921Z,95.32
2019-04-26T21:43:34.797Z,92.05
2019-04-26T21:45:43.945Z,107.60
2019-04-26T21:47:51.732Z,90.67
2019-04-26T21:50:00.756Z,83.17
2019-04-26T21:52:09.186Z,83.70
2019-04-26T21:54:18.101Z,75.08
2019-04-26T21:56:27.082Z,72.65
2019-04-26T21:58:35.031Z,73.50
2019-04-26T22:00:43.642Z,68.37
2019-04-26T22:02:53.446Z,66.45
2019-04-26T22:05:03.184Z,69.47
2019-04-26T22:07:12.507Z,66.65
2019-04-26T22:09:20.251Z,66.62
2019-04-26T22:11:28.369Z,68.30
2019-04-26T22:13:44.725Z,58.42
2019-04-26T22:15:54.571Z,65.10
2019-04-26T22:18:10.251Z,60.92
2019-04-26T22:20:21.377Z,64.20
2019-04-26T22:22:37.475Z,64.70
2019-04-26T22:24:55.544Z,63.45
2019-04-26T22:27:04.276Z,57.27
2019-04-26T22:29:16.673Z,61.73
2019-04-26T22:31:23.712Z,59.25
2019-04-26T22:33:32.644Z,58.55
2019-04-26T22:35:41.292Z,60.28
2019-04-26T22:37:49.196Z,55.12
2019-04-26T22:39:57.938Z,54.88
2019-04-26T22:42:06.757Z,50.80
2019-04-26T22:44:24.891Z,56.50
2019-04-26T22:46:46.494Z,60.80
2019-04-26T22:48:54.888Z,60.40
2019-04-26T22:51:00.951Z,54.73
2019-04-26T22:53:11.796Z,53.50
2019-04-26T22:55:23.975Z,51.33
2019-04-26T22:57:28.186Z,49.15
2019-04-26T22:59:38.202Z,55.10
2019-04-26T23:01:48.743Z,72.40
2019-04-26T23:03:55.528Z,59.75
2019-04-26T23:06:07.883Z,66.70
2019-04-26T23:08:14.720Z,62.85
2019-04-26T23:10:31.183Z,53.20
2019-04-26T23:12:39.294Z,54.30
2019-04-26T23:14:52.100Z,48.80
2019-04-26T23:17:16.312Z,52.05
2019-04-26T23:19:38.134Z,55.23
2019-04-26T23:21:52.958Z,48.92
2019-04-26T23:23:57.469Z,57.35
2019-04-26T23:26:06.230Z,52.60
2019-04-26T23:28:15.126Z,60.23
2019-04-26T23:30:23.698Z,58.55
2019-04-26T23:32:33.905Z,56.10
2019-04-26T23:34:41.991Z,65.80
2019-04-26T23:36:50.292Z,68.83
2019-04-26T23:38:58.573Z,54.35
2019-04-26T23:41:07.719Z,51.83
2019-04-26T23:43:16.944Z,56.88
2019-04-26T23:45:29.769Z,51.65
2019-04-26T23:47:39.459Z,58.42
2019-04-26T23:49:49.383Z,57.62
2019-04-26T23:51:58.879Z,54.60
2019-04-26T23:54:10.323Z,56.15
2019-04-26T23:56:24.632Z,56.85
2019-04-26T23:58:32.306Z,50.70
